sensor_id;sensor_type;location;lat;lon;timestamp;P1;durP1;ratioP1;P2;durP2;ratioP2
21798;SDS011;24973;47.178;15.316;2024-02-16T00:00:28;320.60;;;77.60;;
21798;SDS011;24973;47.178;15.316;2024-02-16T00:03:17;312.57;;;75.30;;
21798;SDS011;24973;47.178;15.316;2024-02-16T00:06:07;322.97;;;76.37;;
21798;SDS011;24973;47.178;15.316;2024-02-16T00:08:56;328.10;;;85.33;;
21798;SDS011;24973;47.178;15.316;2024-02-16T00:11:45;327.63;;;91.73;;
21798;SDS011;24973;47.178;15.316;2024-02-16T00:14:35;324.83;;;90.77;;
21798;SDS011;24973;47.178;15.316;2024-02-16T00:17:25;318.90;;;71.10;;
21798;SDS011;24973;47.178;15.316;2024-02-16T00:20:15;311.00;;;75.93;;
21798;SDS011;24973;47.178;15.316;2024-02-16T00:23:05;305.83;;;72.47;;
21798;SDS011;24973;47.178;15.316;2024-02-16T00:25:54;317.47;;;78.57;;
21798;SDS011;24973;47.178;15.316;2024-02-16T00:28:43;307.47;;;72.83;;
21798;SDS011;24973;47.178;15.316;2024-02-16T00:31:33;307.37;;;72.17;;
21798;SDS011;24973;47.178;15.316;2024-02-16T00:34:23;314.87;;;72.60;;
21798;SDS011;24973;47.178;15.316;2024-02-16T00:37:13;315.60;;;76.30;;
21798;SDS011;24973;47.178;15.316;2024-02-16T00:40:02;319.00;;;78.10;;
21798;SDS011;24973;47.178;15.316;2024-02-16T00:42:53;318.53;;;77.50;;
21798;SDS011;24973;47.178;15.316;2024-02-16T00:45:42;315.67;;;75.17;;
21798;SDS011;24973;47.178;15.316;2024-02-16T00:48:31;312.80;;;74.23;;
21798;SDS011;24973;47.178;15.316;2024-02-16T00:51:22;309.53;;;70.03;;
21798;SDS011;24973;47.178;15.316;2024-02-16T00:54:13;309.33;;;73.70;;
21798;SDS011;24973;47.178;15.316;2024-02-16T00:57:02;321.50;;;78.73;;
21798;SDS011;24973;47.178;15.316;2024-02-16T00:59:51;318.87;;;75.40;;
21798;SDS011;24973;47.178;15.316;2024-02-16T01:02:41;310.13;;;71.83;;
21798;SDS011;24973;47.178;15.316;2024-02-16T01:05:30;310.57;;;70.73;;
21798;SDS011;24973;47.178;15.316;2024-02-16T01:08:21;316.93;;;72.70;;
21798;SDS011;24973;47.178;15.316;2024-02-16T01:11:10;312.60;;;70.43;;
21798;SDS011;24973;47.178;15.316;2024-02-16T01:13:59;324.93;;;77.67;;
21798;SDS011;24973;47.178;15.316;2024-02-16T01:16:49;317.03;;;73.73;;
21798;SDS011;24973;47.178;15.316;2024-02-16T01:19:38;312.60;;;69.53;;
21798;SDS011;24973;47.178;15.316;2024-02-16T01:22:28;309.83;;;69.00;;
21798;SDS011;24973;47.178;15.316;2024-02-16T01:25:18;317.47;;;72.07;;
21798;SDS011;24973;47.178;15.316;2024-02-16T01:28:08;320.57;;;72.30;;
21798;SDS011;24973;47.178;15.316;2024-02-16T01:30:58;330.47;;;76.50;;
21798;SDS011;24973;47.178;15.316;2024-02-16T01:33:48;327.97;;;74.67;;
21798;SDS011;24973;47.178;15.316;2024-02-16T01:36:37;319.87;;;70.30;;
21798;SDS011;24973;47.178;15.316;2024-02-16T01:39:26;321.47;;;71.77;;
21798;SDS011;24973;47.178;15.316;2024-02-16T01:42:17;320.30;;;71.10;;
21798;SDS011;24973;47.178;15.316;2024-02-16T01:45:06;326.53;;;74.47;;
21798;SDS011;24973;47.178;15.316;2024-02-16T01:47:56;325.97;;;73.17;;
21798;SDS011;24973;47.178;15.316;2024-02-16T01:50:47;317.87;;;69.83;;
21798;SDS011;24973;47.178;15.316;2024-02-16T01:53:37;319.50;;;76.43;;
21798;SDS011;24973;47.178;15.316;2024-02-16T01:56:27;303.97;;;102.10;;
21798;SDS011;24973;47.178;15.316;2024-02-16T01:59:17;284.27;;;71.83;;
21798;SDS011;24973;47.178;15.316;2024-02-16T02:02:07;285.80;;;75.50;;
21798;SDS011;24973;47.178;15.316;2024-02-16T02:04:56;273.30;;;72.10;;
21798;SDS011;24973;47.178;15.316;2024-02-16T02:07:45;270.17;;;69.17;;
21798;SDS011;24973;47.178;15.316;2024-02-16T02:10:34;276.37;;;69.73;;
21798;SDS011;24973;47.178;15.316;2024-02-16T02:13:23;267.93;;;73.10;;
21798;SDS011;24973;47.178;15.316;2024-02-16T02:16:14;276.40;;;72.17;;
21798;SDS011;24973;47.178;15.316;2024-02-16T02:19:04;292.43;;;77.70;;
21798;SDS011;24973;47.178;15.316;2024-02-16T02:21:53;293.50;;;74.70;;
21798;SDS011;24973;47.178;15.316;2024-02-16T02:24:44;280.60;;;70.10;;
21798;SDS011;24973;47.178;15.316;2024-02-16T02:27:33;279.63;;;71.47;;
21798;SDS011;24973;47.178;15.316;2024-02-16T02:30:22;270.77;;;69.00;;
21798;SDS011;24973;47.178;15.316;2024-02-16T02:33:11;277.50;;;70.10;;
21798;SDS011;24973;47.178;15.316;2024-02-16T02:36:01;281.57;;;75.03;;
21798;SDS011;24973;47.178;15.316;2024-02-16T02:38:51;277.13;;;71.73;;
21798;SDS011;24973;47.178;15.316;2024-02-16T02:41:41;281.30;;;71.20;;
21798;SDS011;24973;47.178;15.316;2024-02-16T02:44:31;272.90;;;70.33;;
21798;SDS011;24973;47.178;15.316;2024-02-16T02:47:20;278.30;;;70.17;;
21798;SDS011;24973;47.178;15.316;2024-02-16T02:50:09;278.97;;;70.57;;
21798;SDS011;24973;47.178;15.316;2024-02-16T02:52:58;286.23;;;73.33;;
21798;SDS011;24973;47.178;15.316;2024-02-16T02:55:47;284.90;;;70.33;;
21798;SDS011;24973;47.178;15.316;2024-02-16T02:58:40;286.47;;;73.80;;
21798;SDS011;24973;47.178;15.316;2024-02-16T03:01:29;278.60;;;68.77;;
21798;SDS011;24973;47.178;15.316;2024-02-16T03:04:18;283.53;;;68.87;;
21798;SDS011;24973;47.178;15.316;2024-02-16T03:10:52;286.87;;;73.13;;
21798;SDS011;24973;47.178;15.316;2024-02-16T03:13:42;280.90;;;70.30;;
21798;SDS011;24973;47.178;15.316;2024-02-16T03:16:31;275.00;;;70.00;;
21798;SDS011;24973;47.178;15.316;2024-02-16T03:19:21;273.00;;;69.43;;
21798;SDS011;24973;47.178;15.316;2024-02-16T03:22:10;274.77;;;70.57;;
21798;SDS011;24973;47.178;15.316;2024-02-16T03:24:59;289.57;;;75.33;;
21798;SDS011;24973;47.178;15.316;2024-02-16T03:27:48;277.63;;;69.87;;
21798;SDS011;24973;47.178;15.316;2024-02-16T03:30:39;264.23;;;68.97;;
21798;SDS011;24973;47.178;15.316;2024-02-16T03:33:28;280.10;;;70.93;;
21798;SDS011;24973;47.178;15.316;2024-02-16T03:36:18;276.00;;;68.53;;
21798;SDS011;24973;47.178;15.316;2024-02-16T03:39:07;292.37;;;76.93;;
21798;SDS011;24973;47.178;15.316;2024-02-16T03:41:56;286.03;;;73.47;;
21798;SDS011;24973;47.178;15.316;2024-02-16T03:44:45;277.60;;;68.97;;
21798;SDS011;24973;47.178;15.316;2024-02-16T03:47:36;283.23;;;69.60;;
21798;SDS011;24973;47.178;15.316;2024-02-16T03:50:27;279.93;;;69.17;;
21798;SDS011;24973;47.178;15.316;2024-02-16T03:53:17;285.10;;;70.30;;
21798;SDS011;24973;47.178;15.316;2024-02-16T03:56:06;289.00;;;73.53;;
21798;SDS011;24973;47.178;15.316;2024-02-16T03:58:55;293.23;;;74.13;;
21798;SDS011;24973;47.178;15.316;2024-02-16T04:01:45;290.73;;;71.63;;
21798;SDS011;24973;47.178;15.316;2024-02-16T04:04:35;293.83;;;71.93;;
21798;SDS011;24973;47.178;15.316;2024-02-16T04:07:25;308.20;;;69.10;;
21798;SDS011;24973;47.178;15.316;2024-02-16T04:10:14;317.93;;;86.13;;
21798;SDS011;24973;47.178;15.316;2024-02-16T04:13:03;296.80;;;73.13;;
21798;SDS011;24973;47.178;15.316;2024-02-16T04:15:52;296.00;;;70.63;;
21798;SDS011;24973;47.178;15.316;2024-02-16T04:18:42;295.47;;;71.47;;
21798;SDS011;24973;47.178;15.316;2024-02-16T04:21:32;295.43;;;69.77;;
21798;SDS011;24973;47.178;15.316;2024-02-16T04:24:21;305.17;;;70.70;;
21798;SDS011;24973;47.178;15.316;2024-02-16T04:27:10;314.20;;;67.63;;
21798;SDS011;24973;47.178;15.316;2024-02-16T04:30:00;323.90;;;73.07;;
21798;SDS011;24973;47.178;15.316;2024-02-16T04:32:49;314.73;;;69.50;;
21798;SDS011;24973;47.178;15.316;2024-02-16T04:35:38;310.40;;;65.77;;
21798;SDS011;24973;47.178;15.316;2024-02-16T04:38:29;315.40;;;70.50;;
21798;SDS011;24973;47.178;15.316;2024-02-16T04:41:19;315.07;;;69.03;;
21798;SDS011;24973;47.178;15.316;2024-02-16T04:44:08;323.33;;;74.60;;
21798;SDS011;24973;47.178;15.316;2024-02-16T04:46:57;320.50;;;71.30;;
21798;SDS011;24973;47.178;15.316;2024-02-16T04:49:47;310.43;;;66.50;;
21798;SDS011;24973;47.178;15.316;2024-02-16T04:52:36;314.47;;;68.87;;
21798;SDS011;24973;47.178;15.316;2024-02-16T04:55:28;306.67;;;64.73;;
21798;SDS011;24973;47.178;15.316;2024-02-16T04:58:17;320.10;;;73.40;;
21798;SDS011;24973;47.178;15.316;2024-02-16T05:01:07;321.33;;;73.47;;
21798;SDS011;24973;47.178;15.316;2024-02-16T05:03:57;327.43;;;76.10;;
21798;SDS011;24973;47.178;15.316;2024-02-16T05:06:48;312.07;;;68.03;;
21798;SDS011;24973;47.178;15.316;2024-02-16T05:09:39;312.43;;;66.23;;
21798;SDS011;24973;47.178;15.316;2024-02-16T05:12:31;316.33;;;68.80;;
21798;SDS011;24973;47.178;15.316;2024-02-16T05:15:20;317.07;;;71.00;;
21798;SDS011;24973;47.178;15.316;2024-02-16T05:18:10;319.30;;;71.10;;
21798;SDS011;24973;47.178;15.316;2024-02-16T05:20:59;315.20;;;69.23;;
21798;SDS011;24973;47.178;15.316;2024-02-16T05:23:48;316.73;;;70.73;;
21798;SDS011;24973;47.178;15.316;2024-02-16T05:26:38;239.20;;;64.83;;
21798;SDS011;24973;47.178;15.316;2024-02-16T05:29:28;292.30;;;70.63;;
21798;SDS011;24973;47.178;15.316;2024-02-16T05:32:17;316.57;;;70.70;;
21798;SDS011;24973;47.178;15.316;2024-02-16T05:35:07;324.03;;;73.93;;
21798;SDS011;24973;47.178;15.316;2024-02-16T05:37:59;323.43;;;74.43;;
21798;SDS011;24973;47.178;15.316;2024-02-16T05:40:53;321.27;;;72.67;;
21798;SDS011;24973;47.178;15.316;2024-02-16T05:43:43;320.70;;;72.87;;
21798;SDS011;24973;47.178;15.316;2024-02-16T05:46:34;322.03;;;74.40;;
21798;SDS011;24973;47.178;15.316;2024-02-16T05:49:24;316.10;;;70.43;;
21798;SDS011;24973;47.178;15.316;2024-02-16T05:52:13;313.00;;;71.80;;
21798;SDS011;24973;47.178;15.316;2024-02-16T05:55:06;326.90;;;89.87;;
21798;SDS011;24973;47.178;15.316;2024-02-16T05:57:55;303.97;;;73.00;;
21798;SDS011;24973;47.178;15.316;2024-02-16T06:00:45;300.27;;;66.33;;
21798;SDS011;24973;47.178;15.316;2024-02-16T06:03:36;300.27;;;70.27;;
21798;SDS011;24973;47.178;15.316;2024-02-16T06:06:25;306.00;;;72.33;;
21798;SDS011;24973;47.178;15.316;2024-02-16T06:09:15;306.37;;;72.47;;
21798;SDS011;24973;47.178;15.316;2024-02-16T06:12:04;320.50;;;78.90;;
21798;SDS011;24973;47.178;15.316;2024-02-16T06:14:56;309.90;;;74.60;;
21798;SDS011;24973;47.178;15.316;2024-02-16T06:17:47;309.43;;;74.00;;
21798;SDS011;24973;47.178;15.316;2024-02-16T06:20:39;303.90;;;68.97;;
21798;SDS011;24973;47.178;15.316;2024-02-16T06:23:28;315.47;;;75.10;;
21798;SDS011;24973;47.178;15.316;2024-02-16T06:26:17;308.23;;;71.37;;
21798;SDS011;24973;47.178;15.316;2024-02-16T06:29:07;317.67;;;75.03;;
21798;SDS011;24973;47.178;15.316;2024-02-16T06:31:56;309.90;;;74.80;;
21798;SDS011;24973;47.178;15.316;2024-02-16T06:34:45;300.03;;;70.00;;
21798;SDS011;24973;47.178;15.316;2024-02-16T06:37:36;299.00;;;67.23;;
21798;SDS011;24973;47.178;15.316;2024-02-16T06:40:26;298.37;;;67.90;;
21798;SDS011;24973;47.178;15.316;2024-02-16T06:43:16;314.37;;;74.60;;
21798;SDS011;24973;47.178;15.316;2024-02-16T06:46:05;313.03;;;76.23;;
21798;SDS011;24973;47.178;15.316;2024-02-16T06:48:54;307.37;;;70.70;;
21798;SDS011;24973;47.178;15.316;2024-02-16T06:51:44;310.53;;;71.13;;
21798;SDS011;24973;47.178;15.316;2024-02-16T06:54:34;311.73;;;70.00;;
21798;SDS011;24973;47.178;15.316;2024-02-16T06:57:23;386.57;;;126.23;;
21798;SDS011;24973;47.178;15.316;2024-02-16T07:00:13;327.83;;;77.40;;
21798;SDS011;24973;47.178;15.316;2024-02-16T07:03:03;404.53;;;147.13;;
21798;SDS011;24973;47.178;15.316;2024-02-16T07:05:53;331.57;;;79.00;;
21798;SDS011;24973;47.178;15.316;2024-02-16T07:08:42;397.20;;;140.47;;
21798;SDS011;24973;47.178;15.316;2024-02-16T07:11:33;375.47;;;113.13;;
21798;SDS011;24973;47.178;15.316;2024-02-16T07:14:22;416.07;;;156.03;;
21798;SDS011;24973;47.178;15.316;2024-02-16T07:17:12;337.27;;;86.90;;
21798;SDS011;24973;47.178;15.316;2024-02-16T07:20:02;287.00;;;74.47;;
21798;SDS011;24973;47.178;15.316;2024-02-16T07:22:51;201.27;;;64.10;;
21798;SDS011;24973;47.178;15.316;2024-02-16T07:25:40;89.90;;;50.67;;
21798;SDS011;24973;47.178;15.316;2024-02-16T07:28:31;225.97;;;134.13;;
21798;SDS011;24973;47.178;15.316;2024-02-16T07:31:20;299.60;;;183.87;;
21798;SDS011;24973;47.178;15.316;2024-02-16T07:34:09;108.30;;;56.37;;
21798;SDS011;24973;47.178;15.316;2024-02-16T07:36:59;92.37;;;53.33;;
21798;SDS011;24973;47.178;15.316;2024-02-16T07:39:48;87.40;;;51.47;;
21798;SDS011;24973;47.178;15.316;2024-02-16T07:42:38;76.03;;;46.77;;
21798;SDS011;24973;47.178;15.316;2024-02-16T07:45:30;68.47;;;45.00;;
21798;SDS011;24973;47.178;15.316;2024-02-16T07:48:19;83.63;;;74.77;;
21798;SDS011;24973;47.178;15.316;2024-02-16T07:51:09;84.87;;;51.57;;
21798;SDS011;24973;47.178;15.316;2024-02-16T07:53:58;83.60;;;50.80;;
21798;SDS011;24973;47.178;15.316;2024-02-16T07:56:48;73.87;;;48.50;;
21798;SDS011;24973;47.178;15.316;2024-02-16T07:59:38;65.10;;;45.13;;
21798;SDS011;24973;47.178;15.316;2024-02-16T08:02:29;68.07;;;46.40;;
21798;SDS011;24973;47.178;15.316;2024-02-16T08:05:18;64.67;;;44.00;;
21798;SDS011;24973;47.178;15.316;2024-02-16T08:08:09;72.93;;;50.33;;
21798;SDS011;24973;47.178;15.316;2024-02-16T08:10:58;63.03;;;45.73;;
21798;SDS011;24973;47.178;15.316;2024-02-16T08:13:47;72.23;;;49.73;;
21798;SDS011;24973;47.178;15.316;2024-02-16T08:16:36;72.87;;;48.83;;
21798;SDS011;24973;47.178;15.316;2024-02-16T08:19:32;76.50;;;52.63;;
21798;SDS011;24973;47.178;15.316;2024-02-16T08:22:21;75.97;;;50.97;;
21798;SDS011;24973;47.178;15.316;2024-02-16T08:25:11;88.07;;;55.90;;
21798;SDS011;24973;47.178;15.316;2024-02-16T08:28:00;88.23;;;56.63;;
21798;SDS011;24973;47.178;15.316;2024-02-16T08:30:49;81.67;;;53.33;;
21798;SDS011;24973;47.178;15.316;2024-02-16T08:33:39;101.83;;;63.80;;
21798;SDS011;24973;47.178;15.316;2024-02-16T08:36:29;86.97;;;55.43;;
21798;SDS011;24973;47.178;15.316;2024-02-16T08:39:19;88.87;;;57.47;;
21798;SDS011;24973;47.178;15.316;2024-02-16T08:42:11;88.67;;;58.67;;
21798;SDS011;24973;47.178;15.316;2024-02-16T08:45:00;89.70;;;57.67;;
21798;SDS011;24973;47.178;15.316;2024-02-16T08:47:50;83.80;;;56.57;;
21798;SDS011;24973;47.178;15.316;2024-02-16T08:50:39;88.10;;;58.70;;
21798;SDS011;24973;47.178;15.316;2024-02-16T08:53:30;90.13;;;61.27;;
21798;SDS011;24973;47.178;15.316;2024-02-16T08:56:19;82.37;;;56.57;;
21798;SDS011;24973;47.178;15.316;2024-02-16T08:59:08;103.97;;;70.00;;
21798;SDS011;24973;47.178;15.316;2024-02-16T09:01:57;96.83;;;66.93;;
21798;SDS011;24973;47.178;15.316;2024-02-16T09:04:46;86.90;;;61.97;;
21798;SDS011;24973;47.178;15.316;2024-02-16T09:07:35;110.63;;;77.60;;
21798;SDS011;24973;47.178;15.316;2024-02-16T09:10:26;103.77;;;68.17;;
21798;SDS011;24973;47.178;15.316;2024-02-16T09:13:15;105.50;;;74.83;;
21798;SDS011;24973;47.178;15.316;2024-02-16T09:16:10;110.27;;;74.40;;
21798;SDS011;24973;47.178;15.316;2024-02-16T09:18:59;122.77;;;79.83;;
21798;SDS011;24973;47.178;15.316;2024-02-16T09:21:49;108.87;;;74.60;;
21798;SDS011;24973;47.178;15.316;2024-02-16T09:24:41;102.33;;;71.60;;
21798;SDS011;24973;47.178;15.316;2024-02-16T09:27:35;119.37;;;78.00;;
21798;SDS011;24973;47.178;15.316;2024-02-16T09:30:27;114.60;;;77.47;;
21798;SDS011;24973;47.178;15.316;2024-02-16T09:33:16;121.67;;;83.63;;
21798;SDS011;24973;47.178;15.316;2024-02-16T09:36:05;128.73;;;86.70;;
21798;SDS011;24973;47.178;15.316;2024-02-16T09:38:54;121.33;;;81.73;;
21798;SDS011;24973;47.178;15.316;2024-02-16T09:41:44;132.20;;;89.13;;
21798;SDS011;24973;47.178;15.316;2024-02-16T09:44:40;121.37;;;85.43;;
21798;SDS011;24973;47.178;15.316;2024-02-16T09:47:30;120.17;;;84.53;;
21798;SDS011;24973;47.178;15.316;2024-02-16T09:50:21;122.87;;;87.40;;
21798;SDS011;24973;47.178;15.316;2024-02-16T09:53:10;133.90;;;94.97;;
21798;SDS011;24973;47.178;15.316;2024-02-16T09:55:59;131.77;;;91.50;;
21798;SDS011;24973;47.178;15.316;2024-02-16T09:58:49;133.07;;;95.50;;
21798;SDS011;24973;47.178;15.316;2024-02-16T10:01:40;136.83;;;98.03;;
21798;SDS011;24973;47.178;15.316;2024-02-16T10:04:30;137.77;;;97.07;;
21798;SDS011;24973;47.178;15.316;2024-02-16T10:07:30;149.50;;;107.67;;
21798;SDS011;24973;47.178;15.316;2024-02-16T10:10:20;146.97;;;102.30;;
21798;SDS011;24973;47.178;15.316;2024-02-16T10:13:09;159.47;;;109.93;;
21798;SDS011;24973;47.178;15.316;2024-02-16T10:16:05;158.07;;;109.23;;
21798;SDS011;24973;47.178;15.316;2024-02-16T10:18:57;152.67;;;112.03;;
21798;SDS011;24973;47.178;15.316;2024-02-16T10:21:53;142.87;;;107.93;;
21798;SDS011;24973;47.178;15.316;2024-02-16T10:24:42;153.50;;;115.23;;
21798;SDS011;24973;47.178;15.316;2024-02-16T10:27:31;153.73;;;115.67;;
21798;SDS011;24973;47.178;15.316;2024-02-16T10:30:21;144.10;;;111.70;;
21798;SDS011;24973;47.178;15.316;2024-02-16T10:33:11;160.37;;;124.63;;
21798;SDS011;24973;47.178;15.316;2024-02-16T10:36:03;159.73;;;126.80;;
21798;SDS011;24973;47.178;15.316;2024-02-16T10:38:54;154.80;;;122.77;;
21798;SDS011;24973;47.178;15.316;2024-02-16T10:41:44;164.20;;;127.93;;
21798;SDS011;24973;47.178;15.316;2024-02-16T10:44:34;177.37;;;132.90;;
21798;SDS011;24973;47.178;15.316;2024-02-16T10:47:25;191.40;;;141.00;;
21798;SDS011;24973;47.178;15.316;2024-02-16T10:50:14;209.27;;;158.10;;
21798;SDS011;24973;47.178;15.316;2024-02-16T10:53:06;234.47;;;183.30;;
21798;SDS011;24973;47.178;15.316;2024-02-16T10:55:59;240.03;;;193.33;;
21798;SDS011;24973;47.178;15.316;2024-02-16T10:58:49;247.53;;;200.33;;
21798;SDS011;24973;47.178;15.316;2024-02-16T11:01:38;268.67;;;221.33;;
21798;SDS011;24973;47.178;15.316;2024-02-16T11:04:35;275.30;;;234.70;;
21798;SDS011;24973;47.178;15.316;2024-02-16T11:07:26;287.03;;;248.90;;
21798;SDS011;24973;47.178;15.316;2024-02-16T11:10:16;291.53;;;255.57;;
21798;SDS011;24973;47.178;15.316;2024-02-16T11:13:06;303.30;;;265.83;;
21798;SDS011;24973;47.178;15.316;2024-02-16T11:15:59;304.40;;;271.33;;
21798;SDS011;24973;47.178;15.316;2024-02-16T11:18:49;327.20;;;292.40;;
21798;SDS011;24973;47.178;15.316;2024-02-16T11:21:39;328.87;;;292.93;;
21798;SDS011;24973;47.178;15.316;2024-02-16T11:24:44;341.30;;;305.17;;
21798;SDS011;24973;47.178;15.316;2024-02-16T11:27:35;343.63;;;307.10;;
21798;SDS011;24973;47.178;15.316;2024-02-16T11:30:24;352.93;;;315.87;;
21798;SDS011;24973;47.178;15.316;2024-02-16T11:33:14;363.87;;;325.97;;
21798;SDS011;24973;47.178;15.316;2024-02-16T11:36:04;364.90;;;327.90;;
21798;SDS011;24973;47.178;15.316;2024-02-16T11:39:13;374.40;;;335.40;;
21798;SDS011;24973;47.178;15.316;2024-02-16T11:42:03;355.93;;;319.97;;
21798;SDS011;24973;47.178;15.316;2024-02-16T11:44:54;354.60;;;318.30;;
21798;SDS011;24973;47.178;15.316;2024-02-16T11:47:43;371.40;;;333.03;;
21798;SDS011;24973;47.178;15.316;2024-02-16T11:50:32;369.00;;;331.20;;
21798;SDS011;24973;47.178;15.316;2024-02-16T11:53:21;378.63;;;340.43;;
21798;SDS011;24973;47.178;15.316;2024-02-16T11:56:12;378.23;;;340.47;;
21798;SDS011;24973;47.178;15.316;2024-02-16T11:59:12;384.67;;;345.07;;
21798;SDS011;24973;47.178;15.316;2024-02-16T12:02:01;370.40;;;332.20;;
21798;SDS011;24973;47.178;15.316;2024-02-16T12:04:57;374.63;;;335.63;;
21798;SDS011;24973;47.178;15.316;2024-02-16T12:07:48;384.93;;;344.83;;
21798;SDS011;24973;47.178;15.316;2024-02-16T12:10:37;391.00;;;349.70;;
21798;SDS011;24973;47.178;15.316;2024-02-16T12:13:27;407.43;;;363.83;;
21798;SDS011;24973;47.178;15.316;2024-02-16T12:16:18;424.70;;;378.87;;
21798;SDS011;24973;47.178;15.316;2024-02-16T12:19:08;456.30;;;406.87;;
21798;SDS011;24973;47.178;15.316;2024-02-16T12:21:57;455.10;;;407.83;;
21798;SDS011;24973;47.178;15.316;2024-02-16T12:24:47;473.80;;;424.67;;
21798;SDS011;24973;47.178;15.316;2024-02-16T12:27:36;489.13;;;440.53;;
21798;SDS011;24973;47.178;15.316;2024-02-16T12:30:27;514.13;;;463.07;;
21798;SDS011;24973;47.178;15.316;2024-02-16T12:33:16;527.93;;;476.40;;
21798;SDS011;24973;47.178;15.316;2024-02-16T12:36:05;549.63;;;497.83;;
21798;SDS011;24973;47.178;15.316;2024-02-16T12:38:55;532.00;;;482.07;;
21798;SDS011;24973;47.178;15.316;2024-02-16T12:41:46;516.37;;;466.03;;
21798;SDS011;24973;47.178;15.316;2024-02-16T12:44:35;492.83;;;443.67;;
21798;SDS011;24973;47.178;15.316;2024-02-16T12:47:26;487.87;;;438.40;;
21798;SDS011;24973;47.178;15.316;2024-02-16T12:50:15;492.73;;;443.20;;
21798;SDS011;24973;47.178;15.316;2024-02-16T12:53:05;511.87;;;461.70;;
21798;SDS011;24973;47.178;15.316;2024-02-16T12:55:54;518.30;;;468.50;;
21798;SDS011;24973;47.178;15.316;2024-02-16T12:58:43;507.10;;;457.97;;
21798;SDS011;24973;47.178;15.316;2024-02-16T13:01:32;508.73;;;460.10;;
21798;SDS011;24973;47.178;15.316;2024-02-16T13:04:22;510.30;;;461.20;;
21798;SDS011;24973;47.178;15.316;2024-02-16T13:07:12;520.83;;;470.57;;
21798;SDS011;24973;47.178;15.316;2024-02-16T13:10:01;521.50;;;471.50;;
21798;SDS011;24973;47.178;15.316;2024-02-16T13:12:50;526.30;;;476.60;;
21798;SDS011;24973;47.178;15.316;2024-02-16T13:15:39;524.00;;;474.57;;
21798;SDS011;24973;47.178;15.316;2024-02-16T13:18:29;516.63;;;466.60;;
21798;SDS011;24973;47.178;15.316;2024-02-16T13:21:19;444.57;;;398.03;;
21798;SDS011;24973;47.178;15.316;2024-02-16T13:24:08;423.30;;;377.70;;
21798;SDS011;24973;47.178;15.316;2024-02-16T13:26:57;385.83;;;339.33;;
21798;SDS011;24973;47.178;15.316;2024-02-16T13:29:46;444.43;;;396.43;;
21798;SDS011;24973;47.178;15.316;2024-02-16T13:32:36;447.23;;;401.83;;
21798;SDS011;24973;47.178;15.316;2024-02-16T13:35:26;561.70;;;511.23;;
21798;SDS011;24973;47.178;15.316;2024-02-16T13:38:17;592.23;;;540.00;;
21798;SDS011;24973;47.178;15.316;2024-02-16T13:41:08;590.03;;;538.23;;
21798;SDS011;24973;47.178;15.316;2024-02-16T13:43:57;597.63;;;545.53;;
21798;SDS011;24973;47.178;15.316;2024-02-16T13:46:46;583.83;;;532.97;;
21798;SDS011;24973;47.178;15.316;2024-02-16T13:49:36;576.57;;;525.53;;
21798;SDS011;24973;47.178;15.316;2024-02-16T13:52:25;566.07;;;515.67;;
21798;SDS011;24973;47.178;15.316;2024-02-16T13:55:16;615.80;;;562.53;;
21798;SDS011;24973;47.178;15.316;2024-02-16T13:58:05;567.37;;;516.77;;
21798;SDS011;24973;47.178;15.316;2024-02-16T14:00:55;572.27;;;521.80;;
21798;SDS011;24973;47.178;15.316;2024-02-16T14:03:44;574.87;;;523.43;;
21798;SDS011;24973;47.178;15.316;2024-02-16T14:06:33;570.33;;;520.17;;
21798;SDS011;24973;47.178;15.316;2024-02-16T14:09:22;570.37;;;520.00;;
21798;SDS011;24973;47.178;15.316;2024-02-16T14:12:14;589.23;;;537.27;;
21798;SDS011;24973;47.178;15.316;2024-02-16T14:15:03;586.93;;;535.73;;
21798;SDS011;24973;47.178;15.316;2024-02-16T14:17:53;586.63;;;535.90;;
21798;SDS011;24973;47.178;15.316;2024-02-16T14:20:42;583.73;;;533.23;;
21798;SDS011;24973;47.178;15.316;2024-02-16T14:23:31;595.67;;;544.53;;
21798;SDS011;24973;47.178;15.316;2024-02-16T14:26:20;615.00;;;563.13;;
21798;SDS011;24973;47.178;15.316;2024-02-16T14:29:12;635.27;;;581.87;;
21798;SDS011;24973;47.178;15.316;2024-02-16T14:32:01;645.10;;;592.80;;
21798;SDS011;24973;47.178;15.316;2024-02-16T14:34:50;642.63;;;590.63;;
21798;SDS011;24973;47.178;15.316;2024-02-16T14:37:40;651.00;;;598.80;;
21798;SDS011;24973;47.178;15.316;2024-02-16T14:40:29;653.40;;;600.87;;
21798;SDS011;24973;47.178;15.316;2024-02-16T14:43:19;656.10;;;603.30;;
21798;SDS011;24973;47.178;15.316;2024-02-16T14:46:10;655.33;;;602.17;;
21798;SDS011;24973;47.178;15.316;2024-02-16T14:48:59;654.10;;;601.03;;
21798;SDS011;24973;47.178;15.316;2024-02-16T14:51:48;645.43;;;593.27;;
21798;SDS011;24973;47.178;15.316;2024-02-16T14:54:39;645.47;;;593.50;;
21798;SDS011;24973;47.178;15.316;2024-02-16T14:57:28;654.23;;;601.03;;
21798;SDS011;24973;47.178;15.316;2024-02-16T15:00:18;655.43;;;602.20;;
21798;SDS011;24973;47.178;15.316;2024-02-16T15:03:08;644.23;;;591.73;;
21798;SDS011;24973;47.178;15.316;2024-02-16T15:05:57;633.77;;;581.90;;
21798;SDS011;24973;47.178;15.316;2024-02-16T15:08:47;635.03;;;583.07;;
21798;SDS011;24973;47.178;15.316;2024-02-16T15:11:36;642.37;;;587.50;;
21798;SDS011;24973;47.178;15.316;2024-02-16T15:14:25;617.47;;;566.00;;
21798;SDS011;24973;47.178;15.316;2024-02-16T15:17:14;618.10;;;565.87;;
21798;SDS011;24973;47.178;15.316;2024-02-16T15:20:06;610.33;;;558.23;;
21798;SDS011;24973;47.178;15.316;2024-02-16T15:22:55;599.57;;;547.97;;
21798;SDS011;24973;47.178;15.316;2024-02-16T15:25:44;560.57;;;510.00;;
21798;SDS011;24973;47.178;15.316;2024-02-16T15:28:33;535.73;;;485.87;;
21798;SDS011;24973;47.178;15.316;2024-02-16T15:31:23;512.80;;;463.53;;
21798;SDS011;24973;47.178;15.316;2024-02-16T15:34:12;486.40;;;437.80;;
21798;SDS011;24973;47.178;15.316;2024-02-16T15:37:02;430.17;;;385.43;;
21798;SDS011;24973;47.178;15.316;2024-02-16T15:39:52;372.63;;;332.80;;
21798;SDS011;24973;47.178;15.316;2024-02-16T15:42:58;343.17;;;293.10;;
21798;SDS011;24973;47.178;15.316;2024-02-16T15:45:47;314.67;;;248.50;;
21798;SDS011;24973;47.178;15.316;2024-02-16T15:48:37;305.80;;;218.07;;
21798;SDS011;24973;47.178;15.316;2024-02-16T15:51:26;309.60;;;199.13;;
21798;SDS011;24973;47.178;15.316;2024-02-16T15:54:17;314.23;;;179.43;;
21798;SDS011;24973;47.178;15.316;2024-02-16T15:57:06;338.03;;;165.63;;
21798;SDS011;24973;47.178;15.316;2024-02-16T15:59:55;366.60;;;148.83;;
21798;SDS011;24973;47.178;15.316;2024-02-16T16:02:45;368.97;;;137.23;;
21798;SDS011;24973;47.178;15.316;2024-02-16T16:05:34;365.60;;;132.80;;